createdAt,value
2022-08-19T00:00:41.426Z,19.03
2022-08-19T00:03:10.886Z,19.21
2022-08-19T00:05:44.061Z,19.24
2022-08-19T00:08:22.693Z,19.20
2022-08-19T00:10:57.186Z,19.29
2022-08-19T00:13:30.647Z,19.32
2022-08-19T00:16:20.036Z,19.34
2022-08-19T00:19:03.819Z,19.30
2022-08-19T00:22:19.465Z,19.15
2022-08-19T00:24:50.863Z,19.27
2022-08-19T00:27:26.979Z,19.30
2022-08-19T00:29:56.507Z,19.28
2022-08-19T00:32:27.560Z,19.02
2022-08-19T00:35:27.389Z,19.23
2022-08-19T00:37:59.864Z,19.21
2022-08-19T00:40:30.376Z,19.12
2022-08-19T00:42:59.709Z,19.08
2022-08-19T00:45:46.728Z,18.97
2022-08-19T00:48:43.768Z,18.87
2022-08-19T00:51:31.396Z,18.98
2022-08-19T00:54:15.609Z,18.90
2022-08-19T00:56:51.201Z,18.82
2022-08-19T00:59:56.526Z,18.90
2022-08-19T01:02:31.714Z,18.89
2022-08-19T01:05:23.529Z,18.70
2022-08-19T01:08:08.459Z,18.88
2022-08-19T01:11:01.187Z,18.87
2022-08-19T01:13:44.603Z,18.86
2022-08-19T01:16:26.702Z,18.70
2022-08-19T01:18:57.956Z,18.82
2022-08-19T01:21:50.011Z,18.81
2022-08-19T01:24:25.379Z,18.80
2022-08-19T01:26:58.574Z,18.80
2022-08-19T01:29:30.655Z,18.67
2022-08-19T01:32:01.806Z,18.78
2022-08-19T01:34:48.429Z,18.66
2022-08-19T01:37:27.245Z,18.74
2022-08-19T01:39:56.777Z,18.55
2022-08-19T01:42:30.159Z,18.65
2022-08-19T01:45:06.088Z,18.75
2022-08-19T01:47:43.562Z,18.76
2022-08-19T01:50:24.846Z,18.77
2022-08-19T01:53:14.341Z,18.67
2022-08-19T01:55:49.501Z,18.66
2022-08-19T01:58:31.704Z,18.77
2022-08-19T02:01:01.340Z,18.60
2022-08-19T02:03:41.603Z,18.70
2022-08-19T02:06:14.896Z,18.74
2022-08-19T02:08:47.295Z,18.71
2022-08-19T02:11:30.094Z,18.66
2022-08-19T02:14:06.625Z,18.50
2022-08-19T02:16:38.108Z,18.53
2022-08-19T02:19:07.334Z,18.49
2022-08-19T02:21:39.379Z,18.45
2022-08-19T02:24:10.684Z,18.42
2022-08-19T02:26:41.259Z,18.38
2022-08-19T02:29:10.517Z,18.34
2022-08-19T02:31:42.651Z,18.11
2022-08-19T02:34:20.148Z,18.13
2022-08-19T02:36:53.869Z,18.30
2022-08-19T02:39:30.498Z,18.07
2022-08-19T02:42:03.179Z,18.33
2022-08-19T02:44:34.552Z,18.32
2022-08-19T02:47:09.069Z,18.31
2022-08-19T02:49:38.304Z,18.29
2022-08-19T02:52:12.321Z,18.28
2022-08-19T02:54:41.580Z,18.14
2022-08-19T02:57:11.262Z,18.24
2022-08-19T02:59:42.944Z,18.22
2022-08-19T03:02:14.975Z,18.20
2022-08-19T03:04:45.414Z,18.18
2022-08-19T03:07:19.773Z,18.17
2022-08-19T03:09:58.224Z,18.16
2022-08-19T03:12:37.096Z,18.13
2022-08-19T03:15:13.106Z,18.10
2022-08-19T03:17:42.230Z,18.05
2022-08-19T03:20:15.206Z,18.01
2022-08-19T03:23:27.044Z,17.97
2022-08-19T03:26:15.617Z,17.96
2022-08-19T03:28:58.368Z,17.86
2022-08-19T03:31:52.322Z,17.97
2022-08-19T03:34:35.563Z,17.97
2022-08-19T03:37:13.693Z,17.99
2022-08-19T03:39:46.193Z,18.02
2022-08-19T03:42:48.513Z,18.06
2022-08-19T03:45:42.812Z,17.74
2022-08-19T03:48:27.949Z,18.21
2022-08-19T03:51:30.738Z,18.32
2022-08-19T03:54:33.831Z,18.29
2022-08-19T03:57:13.542Z,18.53
2022-08-19T03:59:55.889Z,18.63
2022-08-19T04:02:56.362Z,18.74
2022-08-19T04:05:33.133Z,18.85
2022-08-19T04:08:05.658Z,18.92
2022-08-19T04:10:43.919Z,18.91
2022-08-19T04:13:20.495Z,19.08
2022-08-19T04:15:57.959Z,19.32
2022-08-19T04:18:51.672Z,19.43
2022-08-19T04:21:44.608Z,19.56
2022-08-19T04:24:21.426Z,19.58
2022-08-19T04:26:54.622Z,19.75
2022-08-19T04:29:34.818Z,19.83
2022-08-19T04:32:10.258Z,19.84
2022-08-19T04:35:02.229Z,19.89
2022-08-19T04:37:35.608Z,20.00
2022-08-19T04:40:27.611Z,20.06
2022-08-19T04:46:23.515Z,20.34
2022-08-19T04:57:16.331Z,20.72
2022-08-19T05:00:00.821Z,20.70
2022-08-19T05:03:15.534Z,20.93
2022-08-19T05:08:15.782Z,21.04
2022-08-19T05:10:10.948Z,21.11
2022-08-19T05:17:23.747Z,21.28
2022-08-19T05:20:22.348Z,21.39
2022-08-19T05:23:12.729Z,21.50
2022-08-19T05:26:00.785Z,21.61
2022-08-19T05:28:40.100Z,21.66
2022-08-19T05:31:17.588Z,21.71
2022-08-19T05:34:02.469Z,21.75
2022-08-19T05:37:17.768Z,21.78
2022-08-19T05:40:05.917Z,21.87
2022-08-19T05:43:18.982Z,21.77
2022-08-19T05:46:09.655Z,21.79
2022-08-19T05:48:39.850Z,22.03
2022-08-19T05:54:15.089Z,22.15
2022-08-19T05:56:51.830Z,21.98
2022-08-19T05:59:32.569Z,22.12
2022-08-19T06:02:29.218Z,22.12
2022-08-19T06:05:10.523Z,22.38
2022-08-19T06:07:55.748Z,22.44
2022-08-19T06:10:35.669Z,22.52
2022-08-19T06:13:15.731Z,22.60
2022-08-19T06:15:53.371Z,22.65
2022-08-19T06:18:41.743Z,22.73
2022-08-19T06:21:16.518Z,22.81
2022-08-19T06:23:55.127Z,22.88
2022-08-19T06:26:51.229Z,22.95
2022-08-19T06:29:33.303Z,23.05
2022-08-19T06:32:10.499Z,22.92
2022-08-19T06:35:02.813Z,23.31
2022-08-19T06:37:42.044Z,23.42
2022-08-19T06:40:20.305Z,23.53
2022-08-19T06:42:58.714Z,23.63
2022-08-19T06:45:39.636Z,23.65
2022-08-19T06:48:09.948Z,23.75
2022-08-19T06:50:41.014Z,23.95
2022-08-19T06:53:10.044Z,24.01
2022-08-19T06:55:39.278Z,24.05
2022-08-19T06:58:13.006Z,24.17
2022-08-19T07:00:44.205Z,24.27
2022-08-19T07:03:15.028Z,24.24
2022-08-19T07:05:45.384Z,24.43
2022-08-19T07:08:16.024Z,24.48
2022-08-19T07:10:47.589Z,24.56
2022-08-19T07:13:20.446Z,24.61
2022-08-19T07:15:53.959Z,24.63
2022-08-19T07:18:26.393Z,24.60
2022-08-19T07:21:10.367Z,24.85
2022-08-19T07:24:04.064Z,24.94
2022-08-19T07:26:52.504Z,25.03
2022-08-19T07:29:25.829Z,25.07
2022-08-19T07:32:00.834Z,25.08
2022-08-19T07:34:41.423Z,25.23
2022-08-19T07:37:15.394Z,25.30
2022-08-19T07:39:51.210Z,25.42
2022-08-19T07:42:22.193Z,25.49
2022-08-19T07:44:51.251Z,25.55
2022-08-19T07:47:58.506Z,25.64
2022-08-19T07:50:26.857Z,25.70
2022-08-19T07:52:58.316Z,25.78
2022-08-19T07:55:42.262Z,25.85
2022-08-19T07:58:23.643Z,25.95
2022-08-19T08:00:55.230Z,26.03
2022-08-19T08:03:49.307Z,26.03
2022-08-19T08:06:43.287Z,26.25
2022-08-19T08:09:27.822Z,26.20
2022-08-19T08:12:33.194Z,26.44
2022-08-19T08:15:17.244Z,26.56
2022-08-19T08:18:13.040Z,26.65
2022-08-19T08:21:04.159Z,26.60
2022-08-19T08:26:57.426Z,26.67
2022-08-19T08:29:50.519Z,26.83
2022-08-19T08:37:32.983Z,26.83
2022-08-19T08:41:10.007Z,26.88
2022-08-19T08:44:00.775Z,27.10
2022-08-19T08:51:59.389Z,26.95
2022-08-19T08:55:44.476Z,27.28
2022-08-19T08:58:37.595Z,27.51
2022-08-19T09:01:38.947Z,27.61
2022-08-19T09:09:25.368Z,27.73
2022-08-19T09:12:47.364Z,27.95
2022-08-19T09:15:49.486Z,27.96
2022-08-19T09:21:34.547Z,27.88
2022-08-19T09:28:21.333Z,28.10
2022-08-19T09:31:03.149Z,28.17
2022-08-19T09:33:47.918Z,28.26
2022-08-19T09:36:35.339Z,28.36
2022-08-19T09:39:18.269Z,28.46
2022-08-19T09:42:16.505Z,28.53
2022-08-19T09:45:10.403Z,28.38
2022-08-19T09:48:11.663Z,28.56
2022-08-19T09:51:20.647Z,28.65
2022-08-19T09:54:27.531Z,28.72
2022-08-19T10:05:11.227Z,28.70
2022-08-19T10:07:46.457Z,28.85
2022-08-19T10:10:26.540Z,28.92
2022-08-19T10:13:55.263Z,28.99
2022-08-19T10:17:01.754Z,29.07
2022-08-19T10:19:55.682Z,29.14
2022-08-19T10:23:03.266Z,29.25
2022-08-19T10:28:57.795Z,29.30
2022-08-19T10:32:00.677Z,29.13
2022-08-19T10:35:27.985Z,29.35
2022-08-19T10:38:51.218Z,29.47
2022-08-19T10:41:32.978Z,29.58
2022-08-19T10:44:15.547Z,29.63
2022-08-19T10:46:48.738Z,29.66
2022-08-19T10:49:20.649Z,29.80
2022-08-19T10:52:10.173Z,29.97
2022-08-19T10:54:59.892Z,30.09
2022-08-19T11:00:41.145Z,30.47
2022-08-19T11:03:40.628Z,30.57
2022-08-19T11:06:33.506Z,30.82
2022-08-19T11:09:15.062Z,31.06
2022-08-19T11:12:00.097Z,31.23
2022-08-19T11:15:00.035Z,31.36
2022-08-19T11:17:36.905Z,31.47
2022-08-19T11:20:40.977Z,31.63
2022-08-19T11:23:44.246Z,31.76
2022-08-19T11:26:27.290Z,31.91
2022-08-19T11:32:49.364Z,32.26
2022-08-19T11:35:45.438Z,32.31
2022-08-19T11:38:32.889Z,32.46
2022-08-19T11:41:09.896Z,32.60
2022-08-19T11:43:41.232Z,32.70
2022-08-19T11:50:45.644Z,32.87
2022-08-19T11:53:47.783Z,32.99
2022-08-19T12:05:52.862Z,33.85
2022-08-19T12:08:31.390Z,33.92
2022-08-19T12:12:27.911Z,33.97
2022-08-19T12:16:08.278Z,34.22
2022-08-19T12:24:52.645Z,34.06
2022-08-19T12:38:05.670Z,34.44
2022-08-19T12:44:33.894Z,34.94
2022-08-19T12:52:02.219Z,35.41
2022-08-19T12:59:57.991Z,35.82
2022-08-19T13:11:41.721Z,36.15
2022-08-19T13:14:58.473Z,36.29
2022-08-19T13:25:40.337Z,36.13
2022-08-19T13:28:32.047Z,36.20
2022-08-19T13:31:51.380Z,36.35
2022-08-19T13:34:41.554Z,36.28
2022-08-19T13:37:57.641Z,36.21
2022-08-19T13:41:42.763Z,36.30
2022-08-19T13:52:01.263Z,35.69
2022-08-19T13:55:14.627Z,35.94
2022-08-19T13:58:42.985Z,36.14
2022-08-19T14:02:23.422Z,36.34
2022-08-19T14:05:56.328Z,36.19
2022-08-19T14:09:15.351Z,36.27
2022-08-19T14:11:54.136Z,36.35
2022-08-19T14:15:00.377Z,36.44
2022-08-19T14:18:36.303Z,36.25
2022-08-19T14:26:08.908Z,35.66
2022-08-19T14:33:13.443Z,35.80
2022-08-19T15:21:09.346Z,32.55
2022-08-19T15:27:58.470Z,32.31
2022-08-19T15:34:25.515Z,31.85
2022-08-19T15:41:51.087Z,31.72
2022-08-19T15:49:10.866Z,31.42
2022-08-19T15:52:26.026Z,31.42
2022-08-19T15:55:45.111Z,31.37
2022-08-19T15:59:03.354Z,31.00
2022-08-19T16:02:06.187Z,31.06
2022-08-19T16:05:05.906Z,31.01
2022-08-19T16:08:48.899Z,30.91
2022-08-19T16:15:57.637Z,30.68
2022-08-19T16:31:03.525Z,30.23
2022-08-19T16:35:12.867Z,29.91
2022-08-19T16:38:40.278Z,29.85
2022-08-19T16:41:51.250Z,29.79
2022-08-19T16:44:51.181Z,29.62
2022-08-19T16:47:22.867Z,29.48
2022-08-19T16:50:49.176Z,29.41
2022-08-19T16:54:11.567Z,29.22
2022-08-19T16:56:49.903Z,29.14
2022-08-19T16:59:35.226Z,29.01
2022-08-19T17:02:36.247Z,28.87
2022-08-19T17:06:38.631Z,28.68
2022-08-19T17:09:34.113Z,28.34
2022-08-19T17:13:27.637Z,28.28
2022-08-19T17:16:41.124Z,28.07
2022-08-19T17:19:30.027Z,27.85
2022-08-19T17:22:45.811Z,27.71
2022-08-19T17:26:59.639Z,27.56
2022-08-19T17:30:39.722Z,27.38
2022-08-19T17:33:23.846Z,27.11
2022-08-19T17:36:03.826Z,27.01
2022-08-19T17:39:04.249Z,27.01
2022-08-19T17:41:54.767Z,26.82
2022-08-19T17:45:48.870Z,26.80
2022-08-19T17:48:28.654Z,26.72
2022-08-19T17:52:01.861Z,26.65
2022-08-19T17:54:51.460Z,26.49
2022-08-19T17:57:34.051Z,26.21
2022-08-19T18:00:16.691Z,26.42
2022-08-19T18:03:04.640Z,26.49
2022-08-19T18:06:37.079Z,26.43
2022-08-19T18:09:55.136Z,26.35
2022-08-19T18:13:17.708Z,26.17
2022-08-19T18:16:27.998Z,25.80
2022-08-19T18:19:14.178Z,25.54
2022-08-19T18:22:36.052Z,25.46
2022-08-19T18:25:58.522Z,25.20
2022-08-19T18:29:04.365Z,24.84
2022-08-19T18:34:51.090Z,24.69
2022-08-19T18:37:28.930Z,24.48
2022-08-19T18:40:20.880Z,24.55
2022-08-19T18:43:08.552Z,24.48
2022-08-19T18:46:00.218Z,24.40
2022-08-19T18:48:50.953Z,24.15
2022-08-19T18:51:28.674Z,24.24
2022-08-19T18:54:12.764Z,24.20
2022-08-19T18:56:57.670Z,24.00
2022-08-19T18:59:45.379Z,24.17
2022-08-19T19:02:52.847Z,24.14
2022-08-19T19:14:07.335Z,24.02
2022-08-19T19:17:16.926Z,23.85
2022-08-19T19:20:54.526Z,23.89
2022-08-19T19:24:03.990Z,23.86
2022-08-19T19:26:54.810Z,23.84
2022-08-19T19:29:43.353Z,23.45
2022-08-19T19:35:44.898Z,23.69
2022-08-19T19:41:43.680Z,23.46
2022-08-19T19:44:30.039Z,23.55
2022-08-19T19:47:12.673Z,23.45
2022-08-19T19:52:52.716Z,23.23
2022-08-19T19:55:33.657Z,23.15
2022-08-19T19:58:17.074Z,23.08
2022-08-19T20:00:57.785Z,23.01
2022-08-19T20:06:47.015Z,22.82
2022-08-19T20:09:21.804Z,22.81
2022-08-19T20:12:24.316Z,22.66
2022-08-19T20:15:14.655Z,22.63
2022-08-19T20:18:11.598Z,22.55
2022-08-19T20:21:07.085Z,22.47
2022-08-19T20:24:09.311Z,22.24
2022-08-19T20:26:53.562Z,22.11
2022-08-19T20:29:41.609Z,22.18
2022-08-19T20:32:25.398Z,22.11
2022-08-19T20:35:55.611Z,22.06
2022-08-19T20:38:41.729Z,22.03
2022-08-19T20:46:14.778Z,21.86
2022-08-19T20:48:55.876Z,21.93
2022-08-19T20:55:37.878Z,21.92
2022-08-19T20:59:10.069Z,21.92
2022-08-19T21:06:06.414Z,21.84
2022-08-19T21:08:49.799Z,21.80
2022-08-19T21:11:42.713Z,21.75
2022-08-19T21:14:39.088Z,21.70
2022-08-19T21:17:25.031Z,21.47
2022-08-19T21:23:29.693Z,21.56
2022-08-19T21:26:17.551Z,21.27
2022-08-19T21:31:55.425Z,21.32
2022-08-19T21:34:38.303Z,21.20
2022-08-19T21:37:25.513Z,21.10
2022-08-19T21:43:41.022Z,21.01
2022-08-19T21:50:54.055Z,20.97
2022-08-19T21:53:23.153Z,20.95
2022-08-19T21:55:59.921Z,20.94
2022-08-19T21:58:37.634Z,20.92
2022-08-19T22:01:12.659Z,20.88
2022-08-19T22:03:46.609Z,20.80
2022-08-19T22:06:28.684Z,20.72
2022-08-19T22:09:00.229Z,20.62
2022-08-19T22:11:47.749Z,20.50
2022-08-19T22:14:18.000Z,20.44
2022-08-19T22:16:53.959Z,20.41
2022-08-19T22:19:22.978Z,20.39
2022-08-19T22:21:54.203Z,20.35
2022-08-19T22:24:25.624Z,20.11
2022-08-19T22:26:54.524Z,20.26
2022-08-19T22:29:33.776Z,20.24
2022-08-19T22:32:26.743Z,20.05
2022-08-19T22:34:52.347Z,20.05
2022-08-19T22:37:22.126Z,20.16
2022-08-19T22:39:51.031Z,20.05
2022-08-19T22:42:22.299Z,20.12
2022-08-19T22:44:51.796Z,20.11
2022-08-19T22:47:23.304Z,20.07
2022-08-19T22:49:55.994Z,20.00
2022-08-19T22:52:24.844Z,19.96
2022-08-19T22:55:00.935Z,19.95
2022-08-19T22:57:29.823Z,19.92
2022-08-19T23:00:00.951Z,19.92
2022-08-19T23:02:38.575Z,19.91
2022-08-19T23:05:25.361Z,19.88
2022-08-19T23:07:54.929Z,19.88
2022-08-19T23:10:27.385Z,19.87
2022-08-19T23:12:59.700Z,19.87
2022-08-19T23:15:32.618Z,19.87
2022-08-19T23:18:04.365Z,19.88
2022-08-19T23:20:38.896Z,19.89
2022-08-19T23:23:13.779Z,19.90
2022-08-19T23:25:43.129Z,19.91
2022-08-19T23:28:31.632Z,19.93
2022-08-19T23:31:00.417Z,19.96
2022-08-19T23:33:50.759Z,19.97
2022-08-19T23:36:21.795Z,19.95
2022-08-19T23:38:52.564Z,19.91
2022-08-19T23:41:26.045Z,19.88
2022-08-19T23:43:58.071Z,19.83
2022-08-19T23:46:29.220Z,19.78
2022-08-19T23:49:01.699Z,19.75
2022-08-19T23:51:30.468Z,19.73
2022-08-19T23:54:00.688Z,19.70
2022-08-19T23:56:30.664Z,19.46
2022-08-19T23:58:59.841Z,19.64
